sensor_id;sensor_type;location;lat;lon;timestamp;pressure;altitude;pressure_sealevel;temperature;humidity
68508;BME280;55510;49.560;19.090;2023-03-12T14:30:15;96199.47;;;8.55;36.50
68508;BME280;55510;49.560;19.090;2023-03-12T14:33:19;96198.72;;;8.72;36.34
68508;BME280;55510;49.560;19.090;2023-03-12T14:36:24;96206.78;;;7.77;37.78
68508;BME280;55510;49.560;19.090;2023-03-12T14:39:45;96200.47;;;7.23;39.03
68508;BME280;55510;49.560;19.090;2023-03-12T14:42:48;96201.44;;;6.49;41.18
68508;BME280;55510;49.560;19.090;2023-03-12T14:46:02;96209.34;;;5.93;41.62
68508;BME280;55510;49.560;19.090;2023-03-12T14:49:03;96204.63;;;5.77;41.97
68508;BME280;55510;49.560;19.090;2023-03-12T14:52:05;96211.03;;;5.62;43.13
68508;BME280;55510;49.560;19.090;2023-03-12T14:55:20;96210.69;;;5.77;43.19
68508;BME280;55510;49.560;19.090;2023-03-12T14:58:22;96214.16;;;5.53;43.73
68508;BME280;55510;49.560;19.090;2023-03-12T15:01:25;96203.09;;;5.62;44.23
68508;BME280;55510;49.560;19.090;2023-03-12T15:04:28;96205.16;;;5.60;43.91
68508;BME280;55510;49.560;19.090;2023-03-12T15:07:35;96212.91;;;5.55;44.01
68508;BME280;55510;49.560;19.090;2023-03-12T15:10:39;96204.09;;;5.43;45.13
68508;BME280;55510;49.560;19.090;2023-03-12T15:13:40;96192.81;;;5.29;46.06
68508;BME280;55510;49.560;19.090;2023-03-12T15:16:42;96198.97;;;5.16;46.86
68508;BME280;55510;49.560;19.090;2023-03-12T15:19:43;96200.56;;;5.49;46.00
68508;BME280;55510;49.560;19.090;2023-03-12T15:22:45;96191.00;;;5.55;45.34
68508;BME280;55510;49.560;19.090;2023-03-12T15:25:46;96188.44;;;5.66;44.46
68508;BME280;55510;49.560;19.090;2023-03-12T15:29:23;96189.88;;;5.44;44.27
68508;BME280;55510;49.560;19.090;2023-03-12T15:32:27;96189.38;;;4.96;45.09
68508;BME280;55510;49.560;19.090;2023-03-12T15:35:31;96194.78;;;4.76;46.45
68508;BME280;55510;49.560;19.090;2023-03-12T15:38:33;96210.31;;;4.45;46.81
68508;BME280;55510;49.560;19.090;2023-03-12T15:41:52;96213.63;;;4.27;47.30
68508;BME280;55510;49.560;19.090;2023-03-12T15:44:56;96211.00;;;4.14;47.44
68508;BME280;55510;49.560;19.090;2023-03-12T15:47:58;96193.03;;;3.97;47.07
68508;BME280;55510;49.560;19.090;2023-03-12T15:50:59;96200.13;;;3.83;47.90
68508;BME280;55510;49.560;19.090;2023-03-12T15:54:05;96214.13;;;3.63;48.12
68508;BME280;55510;49.560;19.090;2023-03-12T15:57:23;96206.63;;;3.54;47.88
68508;BME280;55510;49.560;19.090;2023-03-12T16:00:31;96204.00;;;3.47;48.47
68508;BME280;55510;49.560;19.090;2023-03-12T16:03:42;96198.53;;;3.28;47.98
68508;BME280;55510;49.560;19.090;2023-03-12T16:06:45;96186.59;;;3.19;46.46
68508;BME280;55510;49.560;19.090;2023-03-12T16:09:48;96172.84;;;2.97;47.08
68508;BME280;55510;49.560;19.090;2023-03-12T16:12:49;96188.97;;;2.73;46.37
68508;BME280;55510;49.560;19.090;2023-03-12T16:15:53;96180.41;;;2.51;47.31
68508;BME280;55510;49.560;19.090;2023-03-12T16:18:54;96182.38;;;2.42;47.38
68508;BME280;55510;49.560;19.090;2023-03-12T16:21:56;96175.91;;;2.38;45.49
68508;BME280;55510;49.560;19.090;2023-03-12T16:24:57;96185.53;;;2.24;45.64
68508;BME280;55510;49.560;19.090;2023-03-12T16:28:00;96183.06;;;2.09;45.91
68508;BME280;55510;49.560;19.090;2023-03-12T16:31:02;96183.44;;;2.06;45.89
68508;BME280;55510;49.560;19.090;2023-03-12T16:34:02;96194.50;;;1.95;46.88
68508;BME280;55510;49.560;19.090;2023-03-12T16:37:03;96191.19;;;1.79;48.02
68508;BME280;55510;49.560;19.090;2023-03-12T16:40:04;96202.94;;;1.62;48.27
68508;BME280;55510;49.560;19.090;2023-03-12T16:43:19;96194.22;;;1.54;48.21
68508;BME280;55510;49.560;19.090;2023-03-12T16:46:21;96185.91;;;1.51;48.98
68508;BME280;55510;49.560;19.090;2023-03-12T16:49:22;96194.38;;;1.46;49.74
68508;BME280;55510;49.560;19.090;2023-03-12T16:52:23;96181.41;;;1.38;50.13
68508;BME280;55510;49.560;19.090;2023-03-12T16:55:28;96197.53;;;1.35;51.16
68508;BME280;55510;49.560;19.090;2023-03-12T16:58:29;96203.50;;;1.28;52.71
68508;BME280;55510;49.560;19.090;2023-03-12T17:01:30;96198.59;;;1.19;53.51
68508;BME280;55510;49.560;19.090;2023-03-12T17:04:31;96197.66;;;1.05;55.53
68508;BME280;55510;49.560;19.090;2023-03-12T17:07:32;96193.19;;;0.98;56.23
68508;BME280;55510;49.560;19.090;2023-03-12T17:10:32;96181.06;;;0.97;55.38
68508;BME280;55510;49.560;19.090;2023-03-12T17:13:37;96196.09;;;0.89;56.19
68508;BME280;55510;49.560;19.090;2023-03-12T17:16:37;96189.06;;;0.89;56.53
68508;BME280;55510;49.560;19.090;2023-03-12T17:19:38;96205.50;;;0.83;57.90
68508;BME280;55510;49.560;19.090;2023-03-12T17:22:39;96196.78;;;0.76;59.30
68508;BME280;55510;49.560;19.090;2023-03-12T17:25:41;96193.16;;;0.77;59.23
68508;BME280;55510;49.560;19.090;2023-03-12T17:28:42;96184.03;;;0.72;59.64
68508;BME280;55510;49.560;19.090;2023-03-12T17:31:43;96192.97;;;0.78;60.02
68508;BME280;55510;49.560;19.090;2023-03-12T17:34:44;96199.13;;;0.70;61.34
68508;BME280;55510;49.560;19.090;2023-03-12T17:37:47;96209.34;;;0.65;61.55
68508;BME280;55510;49.560;19.090;2023-03-12T17:40:47;96214.34;;;0.60;61.82
68508;BME280;55510;49.560;19.090;2023-03-12T17:43:48;96202.41;;;0.57;62.69
68508;BME280;55510;49.560;19.090;2023-03-12T17:46:49;96181.66;;;0.56;63.90
68508;BME280;55510;49.560;19.090;2023-03-12T17:49:50;96173.34;;;0.52;64.33
68508;BME280;55510;49.560;19.090;2023-03-12T17:52:50;96174.00;;;0.39;65.34
68508;BME280;55510;49.560;19.090;2023-03-12T17:55:51;96175.13;;;0.30;66.42
68508;BME280;55510;49.560;19.090;2023-03-12T17:58:52;96191.47;;;0.17;67.01
68508;BME280;55510;49.560;19.090;2023-03-12T18:01:53;96192.56;;;0.08;67.98
68508;BME280;55510;49.560;19.090;2023-03-12T18:04:53;96183.19;;;-0.02;67.07
68508;BME280;55510;49.560;19.090;2023-03-12T18:07:54;96173.00;;;-0.11;67.05
68508;BME280;55510;49.560;19.090;2023-03-12T18:10:55;96172.84;;;-0.10;66.89
68508;BME280;55510;49.560;19.090;2023-03-12T18:13:56;96164.09;;;-0.17;67.23
68508;BME280;55510;49.560;19.090;2023-03-12T18:16:56;96165.59;;;-0.38;68.31
68508;BME280;55510;49.560;19.090;2023-03-12T18:19:58;96175.06;;;-0.52;70.11
68508;BME280;55510;49.560;19.090;2023-03-12T18:22:59;96194.78;;;-0.64;70.10
68508;BME280;55510;49.560;19.090;2023-03-12T18:26:00;96195.84;;;-0.74;70.15
68508;BME280;55510;49.560;19.090;2023-03-12T18:29:01;96181.03;;;-0.81;70.22
68508;BME280;55510;49.560;19.090;2023-03-12T18:32:02;96164.28;;;-0.87;70.03
68508;BME280;55510;49.560;19.090;2023-03-12T18:35:05;96159.75;;;-0.93;70.55
68508;BME280;55510;49.560;19.090;2023-03-12T18:38:07;96159.75;;;-0.93;70.85
68508;BME280;55510;49.560;19.090;2023-03-12T18:41:09;96167.00;;;-1.04;72.24
68508;BME280;55510;49.560;19.090;2023-03-12T18:44:11;96169.69;;;-1.12;72.31
68508;BME280;55510;49.560;19.090;2023-03-12T18:47:12;96163.19;;;-1.16;71.19
68508;BME280;55510;49.560;19.090;2023-03-12T18:50:13;96171.94;;;-1.09;70.02
68508;BME280;55510;49.560;19.090;2023-03-12T18:53:14;96175.56;;;-1.10;69.07
68508;BME280;55510;49.560;19.090;2023-03-12T18:56:15;96188.25;;;-1.07;69.85
68508;BME280;55510;49.560;19.090;2023-03-12T18:59:15;96176.41;;;-0.94;69.68
68508;BME280;55510;49.560;19.090;2023-03-12T19:02:16;96183.56;;;-0.88;69.35
68508;BME280;55510;49.560;19.090;2023-03-12T19:05:17;96190.06;;;-0.84;69.88
68508;BME280;55510;49.560;19.090;2023-03-12T19:08:18;96184.72;;;-0.91;70.15
68508;BME280;55510;49.560;19.090;2023-03-12T19:11:20;96188.78;;;-0.88;70.14
68508;BME280;55510;49.560;19.090;2023-03-12T19:14:21;96185.63;;;-0.83;69.60
68508;BME280;55510;49.560;19.090;2023-03-12T19:17:22;96190.78;;;-0.75;67.93
68508;BME280;55510;49.560;19.090;2023-03-12T19:20:23;96183.78;;;-0.75;67.76
68508;BME280;55510;49.560;19.090;2023-03-12T19:23:24;96186.66;;;-0.69;67.98
68508;BME280;55510;49.560;19.090;2023-03-12T19:26:25;96181.00;;;-0.58;66.22
68508;BME280;55510;49.560;19.090;2023-03-12T19:29:25;96178.50;;;-0.51;66.18
68508;BME280;55510;49.560;19.090;2023-03-12T19:32:26;96190.31;;;-0.40;65.32
68508;BME280;55510;49.560;19.090;2023-03-12T19:35:27;96189.59;;;-0.34;64.45
68508;BME280;55510;49.560;19.090;2023-03-12T19:38:28;96177.31;;;-0.34;65.94
68508;BME280;55510;49.560;19.090;2023-03-12T19:41:29;96180.03;;;-0.27;63.63
68508;BME280;55510;49.560;19.090;2023-03-12T19:44:30;96182.19;;;-0.16;60.86
68508;BME280;55510;49.560;19.090;2023-03-12T19:47:33;96183.03;;;0.00;59.09
68508;BME280;55510;49.560;19.090;2023-03-12T19:50:33;96183.00;;;0.15;57.84
68508;BME280;55510;49.560;19.090;2023-03-12T19:53:34;96176.09;;;0.44;55.06
68508;BME280;55510;49.560;19.090;2023-03-12T19:56:35;96183.28;;;0.57;54.75
68508;BME280;55510;49.560;19.090;2023-03-12T19:59:36;96185.72;;;0.58;55.16
68508;BME280;55510;49.560;19.090;2023-03-12T20:02:37;96193.78;;;0.79;52.73
68508;BME280;55510;49.560;19.090;2023-03-12T20:05:42;96201.50;;;0.87;52.90
68508;BME280;55510;49.560;19.090;2023-03-12T20:08:43;96198.41;;;0.98;52.73
68508;BME280;55510;49.560;19.090;2023-03-12T20:11:44;96197.28;;;1.08;52.28
68508;BME280;55510;49.560;19.090;2023-03-12T20:14:46;96196.91;;;1.11;53.21
68508;BME280;55510;49.560;19.090;2023-03-12T20:17:46;96191.84;;;1.09;54.73
68508;BME280;55510;49.560;19.090;2023-03-12T20:20:47;96189.56;;;0.99;55.82
68508;BME280;55510;49.560;19.090;2023-03-12T20:23:49;96195.19;;;0.96;55.43
68508;BME280;55510;49.560;19.090;2023-03-12T20:26:49;96189.94;;;0.96;55.64
68508;BME280;55510;49.560;19.090;2023-03-12T20:29:50;96176.84;;;0.96;54.82
68508;BME280;55510;49.560;19.090;2023-03-12T20:32:51;96172.63;;;1.02;55.46
68508;BME280;55510;49.560;19.090;2023-03-12T20:35:51;96177.44;;;1.20;53.04
68508;BME280;55510;49.560;19.090;2023-03-12T20:38:52;96172.00;;;1.22;53.60
68508;BME280;55510;49.560;19.090;2023-03-12T20:41:53;96178.88;;;1.23;53.66
68508;BME280;55510;49.560;19.090;2023-03-12T20:44:53;96172.03;;;1.28;53.29
68508;BME280;55510;49.560;19.090;2023-03-12T20:47:57;96173.66;;;1.29;53.38
68508;BME280;55510;49.560;19.090;2023-03-12T20:50:58;96168.69;;;1.35;52.55
68508;BME280;55510;49.560;19.090;2023-03-12T20:53:59;96160.56;;;1.58;50.97
68508;BME280;55510;49.560;19.090;2023-03-12T20:57:00;96153.88;;;1.55;51.81
68508;BME280;55510;49.560;19.090;2023-03-12T21:00:01;96151.88;;;1.57;51.22
68508;BME280;55510;49.560;19.090;2023-03-12T21:03:02;96150.25;;;1.56;51.91
68508;BME280;55510;49.560;19.090;2023-03-12T21:06:02;96154.94;;;1.61;51.88
68508;BME280;55510;49.560;19.090;2023-03-12T21:09:03;96165.44;;;1.61;52.41
